Time;durP1;ratioP1;P1;durP2;ratioP2;P2;SDS_P1;SDS_P2;PMS_P1;PMS_P2;Temp;Humidity;BMP_temperature;BMP_pressure;BME280_temperature;BME280_humidity;BME280_pressure;Samples;Min_cycle;Max_cycle;Signal;HPM_P1;HPM_P2
2022/01/31 00:00:48;;;;;;;11.03;3.90;;;;;;;;;;10530418;28;20067;-70
2022/01/31 00:05:49;;;;;;;15.73;3.92;;;;;;;;;;10529754;28;20552;-71
2022/01/31 00:10:49;;;;;;;9.30;3.55;;;;;;;;;;10512773;28;20394;-72
2022/01/31 00:15:53;;;;;;;24.65;4.45;;;;;;;;;;10529941;28;20034;-72
2022/01/31 00:20:54;;;;;;;12.73;2.88;;;;;;;;;;10529357;28;20051;-74
2022/01/31 00:25:54;;;;;;;14.93;3.90;;;;;;;;;;10529219;28;20028;-77
2022/01/31 00:30:54;;;;;;;14.88;3.45;;;;;;;;;;10528860;28;20036;-71
2022/01/31 00:35:55;;;;;;;14.52;3.83;;;;;;;;;;10529008;28;20028;-71
2022/01/31 00:40:55;;;;;;;8.18;3.30;;;;;;;;;;10528940;28;20085;-78
2022/01/31 00:45:59;;;;;;;10.67;3.70;;;;;;;;;;10529097;28;20406;-72
2022/01/31 00:51:00;;;;;;;24.13;4.00;;;;;;;;;;10512023;28;20028;-70
2022/01/31 00:56:00;;;;;;;9.30;3.80;;;;;;;;;;10511812;28;20034;-70
2022/01/31 01:01:00;;;;;;;8.38;2.95;;;;;;;;;;10528641;28;20028;-70
2022/01/31 01:06:00;;;;;;;14.27;2.80;;;;;;;;;;10527854;28;20416;-70
2022/01/31 01:11:01;;;;;;;13.05;3.00;;;;;;;;;;10527832;28;20036;-70
2022/01/31 01:16:01;;;;;;;24.40;3.25;;;;;;;;;;10528015;28;20028;-71
2022/01/31 01:21:01;;;;;;;9.07;3.38;;;;;;;;;;10527949;28;20044;-70
2022/01/31 01:26:02;;;;;;;5.93;2.63;;;;;;;;;;10527790;28;20020;-70
2022/01/31 01:31:02;;;;;;;11.35;2.67;;;;;;;;;;10529173;28;20493;-71
2022/01/31 01:36:04;;;;;;;5.25;2.25;;;;;;;;;;10529387;28;20024;-70
2022/01/31 01:41:04;;;;;;;6.95;3.20;;;;;;;;;;10510624;28;20113;-70
2022/01/31 01:46:04;;;;;;;13.27;3.33;;;;;;;;;;10527569;28;20632;-70
2022/01/31 01:51:05;;;;;;;6.20;2.63;;;;;;;;;;10527391;28;20024;-71
2022/01/31 01:56:05;;;;;;;12.63;2.88;;;;;;;;;;10529019;28;20020;-70
2022/01/31 02:01:06;;;;;;;10.30;3.37;;;;;;;;;;10518023;28;20028;-71
2022/01/31 02:06:07;;;;;;;5.95;2.70;;;;;;;;;;10528596;28;20028;-70
2022/01/31 02:11:08;;;;;;;12.00;3.10;;;;;;;;;;10536276;28;20093;-69
2022/01/31 02:16:09;;;;;;;16.33;2.83;;;;;;;;;;10540374;28;20072;-71
2022/01/31 02:21:09;;;;;;;7.97;2.92;;;;;;;;;;10537165;28;20048;-71
2022/01/31 02:26:09;;;;;;;5.28;2.30;;;;;;;;;;10535489;28;20027;-70
2022/01/31 02:31:10;;;;;;;11.40;2.73;;;;;;;;;;10534705;28;20059;-70
2022/01/31 02:36:10;;;;;;;6.60;2.33;;;;;;;;;;10537340;28;20532;-70
2022/01/31 02:41:10;;;;;;;10.00;3.35;;;;;;;;;;10567724;28;20028;-69
2022/01/31 02:46:11;;;;;;;16.00;2.85;;;;;;;;;;10534588;28;20028;-70
2022/01/31 02:51:12;;;;;;;11.67;2.60;;;;;;;;;;10555465;28;20614;-70
2022/01/31 02:56:13;;;;;;;14.15;3.00;;;;;;;;;;10556237;28;20028;-70
2022/01/31 03:01:14;;;;;;;11.33;2.83;;;;;;;;;;10535376;28;20042;-69
2022/01/31 03:06:15;;;;;;;21.17;2.85;;;;;;;;;;10554707;28;20611;-71
2022/01/31 03:11:15;;;;;;;10.63;2.17;;;;;;;;;;10533265;28;20036;-70
2022/01/31 03:16:15;;;;;;;1.73;1.30;;;;;;;;;;10554053;28;20031;-70
2022/01/31 03:21:16;;;;;;;11.37;2.60;;;;;;;;;;10513922;28;20039;-70
2022/01/31 03:26:17;;;;;;;5.17;2.23;;;;;;;;;;10514191;28;20036;-69
2022/01/31 03:31:20;;;;;;;9.13;1.75;;;;;;;;;;10514209;28;20036;-69
2022/01/31 03:36:21;;;;;;;7.28;2.55;;;;;;;;;;10531237;28;20035;-71
2022/01/31 03:41:22;;;;;;;4.57;2.20;;;;;;;;;;10513983;28;20043;-70
2022/01/31 03:46:23;;;;;;;9.05;2.17;;;;;;;;;;10514153;28;20032;-70
2022/01/31 03:51:23;;;;;;;11.95;2.58;;;;;;;;;;10529742;28;20533;-69
2022/01/31 03:56:24;;;;;;;13.02;2.05;;;;;;;;;;10513393;28;20086;-70
2022/01/31 04:01:24;;;;;;;10.20;2.33;;;;;;;;;;10513324;28;20038;-69
2022/01/31 04:06:25;;;;;;;12.38;2.55;;;;;;;;;;10513694;28;20523;-70
2022/01/31 04:11:25;;;;;;;13.70;2.73;;;;;;;;;;10513194;28;20101;-71
2022/01/31 04:16:25;;;;;;;7.25;2.33;;;;;;;;;;10530895;28;20278;-68
2022/01/31 04:21:26;;;;;;;10.35;2.25;;;;;;;;;;10495686;28;20059;-71
2022/01/31 04:26:33;;;;;;;14.55;2.58;;;;;;;;;;10512632;28;20032;-70
2022/01/31 04:31:41;;;;;;;11.38;2.55;;;;;;;;;;10542586;28;20051;-70
2022/01/31 04:36:41;;;;;;;8.20;2.67;;;;;;;;;;10555878;28;20059;-76
2022/01/31 04:41:42;;;;;;;7.83;2.07;;;;;;;;;;10550362;28;20055;-71
2022/01/31 04:46:45;;;;;;;10.30;2.72;;;;;;;;;;10519656;28;20077;-72
2022/01/31 04:51:45;;;;;;;10.95;2.25;;;;;;;;;;10553767;28;20031;-72
2022/01/31 04:56:46;;;;;;;5.43;2.38;;;;;;;;;;10571680;28;20039;-72
2022/01/31 05:01:48;;;;;;;13.13;2.65;;;;;;;;;;10547173;28;20040;-72
2022/01/31 05:06:49;;;;;;;12.05;3.35;;;;;;;;;;10553344;28;20134;-71
2022/01/31 05:11:49;;;;;;;6.22;2.70;;;;;;;;;;10554746;28;20038;-71
2022/01/31 05:16:50;;;;;;;21.73;2.50;;;;;;;;;;10569177;28;20465;-71
2022/01/31 05:21:50;;;;;;;18.73;2.40;;;;;;;;;;10552843;28;20361;-72
2022/01/31 05:26:52;;;;;;;8.88;2.70;;;;;;;;;;10534152;28;20057;-73
2022/01/31 05:31:53;;;;;;;3.45;1.92;;;;;;;;;;10538959;28;20062;-72
2022/01/31 05:36:55;;;;;;;2.65;1.98;;;;;;;;;;10534849;28;20035;-73
2022/01/31 05:41:56;;;;;;;4.28;2.28;;;;;;;;;;10531510;28;20468;-72
2022/01/31 05:46:57;;;;;;;9.23;2.22;;;;;;;;;;10516635;28;20040;-73
2022/01/31 05:52:04;;;;;;;8.13;2.58;;;;;;;;;;10534043;28;20038;-73
2022/01/31 05:57:05;;;;;;;6.37;1.93;;;;;;;;;;10535935;28;20027;-73
2022/01/31 06:02:06;;;;;;;6.70;2.00;;;;;;;;;;10550108;28;20818;-74
2022/01/31 06:07:06;;;;;;;18.17;4.13;;;;;;;;;;10532322;28;20435;-72
2022/01/31 06:12:07;;;;;;;6.53;1.70;;;;;;;;;;10539398;28;20032;-73
2022/01/31 06:17:07;;;;;;;7.00;2.55;;;;;;;;;;10557790;28;20481;-73
2022/01/31 06:22:07;;;;;;;10.63;3.22;;;;;;;;;;10575721;28;20644;-71
2022/01/31 06:27:08;;;;;;;11.40;4.03;;;;;;;;;;10558376;28;20085;-72
2022/01/31 06:32:08;;;;;;;5.80;3.03;;;;;;;;;;10558681;28;20023;-75
2022/01/31 06:37:08;;;;;;;7.47;1.98;;;;;;;;;;10576573;28;20027;-72
2022/01/31 06:42:09;;;;;;;10.98;3.03;;;;;;;;;;10558499;28;20031;-78
2022/01/31 06:47:10;;;;;;;10.98;2.83;;;;;;;;;;10558540;28;20032;-72
2022/01/31 06:52:11;;;;;;;11.20;2.38;;;;;;;;;;10557769;28;20024;-75
2022/01/31 06:57:11;;;;;;;7.40;2.35;;;;;;;;;;10560781;28;20108;-74
2022/01/31 07:02:11;;;;;;;5.20;2.63;;;;;;;;;;10560191;28;20020;-74
2022/01/31 07:07:12;;;;;;;15.60;3.05;;;;;;;;;;10558296;28;20265;-73
2022/01/31 07:12:13;;;;;;;8.57;2.33;;;;;;;;;;10558362;28;20043;-73
2022/01/31 07:17:13;;;;;;;5.18;2.30;;;;;;;;;;10575940;28;20032;-73
2022/01/31 07:22:15;;;;;;;6.87;2.50;;;;;;;;;;10556977;28;20150;-72
2022/01/31 07:27:15;;;;;;;10.23;3.20;;;;;;;;;;10559564;28;20372;-76
2022/01/31 07:32:15;;;;;;;10.90;3.60;;;;;;;;;;10558795;28;20119;-72
2022/01/31 07:37:16;;;;;;;8.63;2.42;;;;;;;;;;10540064;28;20027;-72
2022/01/31 07:42:17;;;;;;;6.75;2.17;;;;;;;;;;10549465;28;20032;-72
2022/01/31 07:47:17;;;;;;;6.40;1.85;;;;;;;;;;10531214;28;20070;-72
2022/01/31 07:52:17;;;;;;;13.45;2.33;;;;;;;;;;10531028;28;20030;-72
2022/01/31 07:57:19;;;;;;;7.50;2.10;;;;;;;;;;10530715;28;20032;-72
2022/01/31 08:02:19;;;;;;;13.65;2.35;;;;;;;;;;10530089;28;20528;-72
2022/01/31 08:07:20;;;;;;;7.72;2.15;;;;;;;;;;10529524;28;20024;-73
2022/01/31 08:12:20;;;;;;;6.30;2.30;;;;;;;;;;10512592;28;20460;-73
2022/01/31 08:17:21;;;;;;;7.90;2.17;;;;;;;;;;10529206;28;20308;-73
2022/01/31 08:22:21;;;;;;;6.50;1.90;;;;;;;;;;10529717;28;20115;-73
2022/01/31 08:27:22;;;;;;;6.32;1.67;;;;;;;;;;10529858;28;20079;-74
2022/01/31 08:32:33;;;;;;;8.98;2.58;;;;;;;;;;10513679;28;20106;-74
2022/01/31 08:37:33;;;;;;;11.13;1.73;;;;;;;;;;10529854;28;20378;-71
2022/01/31 08:42:34;;;;;;;12.93;2.10;;;;;;;;;;10530859;28;20036;-73
2022/01/31 08:47:34;;;;;;;4.40;1.70;;;;;;;;;;10530851;28;20416;-73
2022/01/31 08:52:35;;;;;;;7.17;2.77;;;;;;;;;;10515337;28;20036;-76
2022/01/31 08:57:36;;;;;;;7.03;2.40;;;;;;;;;;10530927;28;20270;-72
2022/01/31 09:02:40;;;;;;;13.95;3.65;;;;;;;;;;10538847;28;20032;-74
2022/01/31 09:07:40;;;;;;;11.18;2.20;;;;;;;;;;10535585;28;20089;-74
2022/01/31 09:12:40;;;;;;;12.20;2.20;;;;;;;;;;10537715;28;20047;-74
2022/01/31 09:17:41;;;;;;;16.53;2.27;;;;;;;;;;10545462;28;20412;-74
2022/01/31 09:22:43;;;;;;;10.75;2.30;;;;;;;;;;10562558;28;20129;-72
2022/01/31 09:27:43;;;;;;;8.60;1.83;;;;;;;;;;10545820;28;20112;-73
2022/01/31 09:32:43;;;;;;;7.80;2.37;;;;;;;;;;10562387;28;20032;-74
2022/01/31 09:37:44;;;;;;;13.87;2.70;;;;;;;;;;10545208;28;20042;-73
2022/01/31 09:43:39;;;;;;;7.25;1.98;;;;;;;;;;10580723;28;20269;-74
2022/01/31 09:48:32;;;;;;;5.35;2.00;;;;;;;;;;10566300;28;20036;-73
2022/01/31 09:53:52;;;;;;;10.43;2.35;;;;;;;;;;10563424;28;20445;-74
2022/01/31 09:58:54;;;;;;;7.03;1.55;;;;;;;;;;10560878;28;20088;-73
2022/01/31 10:04:09;;;;;;;8.95;2.00;;;;;;;;;;10561829;28;20390;-72
2022/01/31 10:09:20;;;;;;;3.42;1.42;;;;;;;;;;10559836;28;20031;-71
2022/01/31 10:19:40;;;;;;;9.40;2.42;;;;;;;;;;10577204;28;20051;-75
2022/01/31 10:24:42;;;;;;;14.27;2.17;;;;;;;;;;10556456;28;20085;-74
2022/01/31 10:29:44;;;;;;;5.07;1.58;;;;;;;;;;10538175;28;20062;-73
2022/01/31 10:34:51;;;;;;;2.90;1.45;;;;;;;;;;10514355;28;20261;-73
2022/01/31 10:55:38;;;;;;;6.68;1.77;;;;;;;;;;10531620;28;20016;-73
2022/01/31 11:00:40;;;;;;;3.57;1.13;;;;;;;;;;10513611;28;20888;-74
2022/01/31 11:05:40;;;;;;;8.30;1.88;;;;;;;;;;10513282;28;20206;-74
2022/01/31 11:10:41;;;;;;;5.85;1.60;;;;;;;;;;10530077;28;20046;-73
2022/01/31 11:15:41;;;;;;;6.75;1.88;;;;;;;;;;10530680;28;20135;-74
2022/01/31 11:20:43;;;;;;;8.87;1.63;;;;;;;;;;10470080;28;1197536;-74
2022/01/31 11:25:47;;;;;;;3.40;1.10;;;;;;;;;;10532965;28;20070;-73
2022/01/31 11:30:47;;;;;;;6.85;2.10;;;;;;;;;;10513699;28;20039;-73
2022/01/31 11:35:48;;;;;;;3.80;1.60;;;;;;;;;;10518920;28;20032;-78
2022/01/31 11:40:50;;;;;;;2.83;0.90;;;;;;;;;;10518317;28;20473;-75
2022/01/31 11:45:52;;;;;;;3.22;1.33;;;;;;;;;;10513851;28;20036;-73
2022/01/31 11:50:55;;;;;;;7.57;1.80;;;;;;;;;;10513771;28;20040;-73
2022/01/31 11:55:59;;;;;;;9.73;1.70;;;;;;;;;;10517454;28;20039;-74
2022/01/31 12:01:01;;;;;;;6.20;1.20;;;;;;;;;;10515643;28;20156;-73
2022/01/31 12:06:10;;;;;;;5.28;1.30;;;;;;;;;;10533822;28;20082;-72
2022/01/31 12:11:15;;;;;;;5.82;1.27;;;;;;;;;;10530900;28;20101;-73
2022/01/31 12:16:47;;;;;;;5.85;1.20;;;;;;;;;;10540336;28;20388;-77
2022/01/31 12:21:59;;;;;;;7.03;1.27;;;;;;;;;;10511635;28;20079;-75
2022/01/31 12:27:15;;;;;;;4.90;2.05;;;;;;;;;;10529725;28;20068;-73
2022/01/31 12:32:16;;;;;;;10.48;1.30;;;;;;;;;;10530783;28;20028;-79
2022/01/31 12:37:21;;;;;;;8.77;2.10;;;;;;;;;;10535281;28;20020;-72
2022/01/31 12:48:05;;;;;;;8.32;2.88;;;;;;;;;;10529881;28;20031;-73
2022/01/31 12:53:47;;;;;;;8.70;1.83;;;;;;;;;;10529925;28;20024;-72
2022/01/31 12:58:57;;;;;;;9.63;1.42;;;;;;;;;;10531665;28;20035;-73
2022/01/31 13:04:12;;;;;;;6.50;1.17;;;;;;;;;;10558216;28;20027;-75
2022/01/31 13:09:29;;;;;;;5.93;1.92;;;;;;;;;;10560833;28;20073;-75
2022/01/31 13:14:31;;;;;;;3.53;1.00;;;;;;;;;;10558593;28;20070;-79
2022/01/31 13:19:34;;;;;;;5.75;1.50;;;;;;;;;;10547808;28;20402;-74
2022/01/31 13:24:39;;;;;;;4.47;1.00;;;;;;;;;;10529251;28;20032;-74
2022/01/31 13:29:41;;;;;;;5.15;1.08;;;;;;;;;;10512700;28;20039;-75
2022/01/31 13:34:42;;;;;;;11.75;1.70;;;;;;;;;;10512011;28;20032;-73
2022/01/31 13:39:51;;;;;;;10.45;1.13;;;;;;;;;;10511517;28;20032;-73
2022/01/31 13:44:54;;;;;;;2.95;1.55;;;;;;;;;;10525023;28;20053;-73
2022/01/31 13:50:00;;;;;;;6.78;1.50;;;;;;;;;;10552118;28;20036;-74
2022/01/31 13:55:01;;;;;;;7.30;2.00;;;;;;;;;;10558902;28;20034;-76
2022/01/31 14:00:02;;;;;;;3.90;2.08;;;;;;;;;;10578019;28;20416;-72
2022/01/31 14:05:16;;;;;;;5.55;2.72;;;;;;;;;;10560274;28;20028;-73
2022/01/31 14:10:32;;;;;;;7.50;2.03;;;;;;;;;;10560237;28;20031;-72
2022/01/31 14:15:41;;;;;;;11.15;3.00;;;;;;;;;;10559848;28;20035;-73
2022/01/31 14:20:42;;;;;;;5.95;2.50;;;;;;;;;;10577428;28;20093;-72
2022/01/31 14:25:44;;;;;;;6.65;2.50;;;;;;;;;;10577280;28;20109;-77
2022/01/31 14:30:48;;;;;;;4.30;2.40;;;;;;;;;;10579981;28;20024;-73
2022/01/31 14:36:01;;;;;;;12.05;4.07;;;;;;;;;;10542199;28;20032;-74
2022/01/31 14:51:22;;;;;;;7.97;3.67;;;;;;;;;;10535352;28;20028;-75
2022/01/31 14:56:22;;;;;;;12.48;4.10;;;;;;;;;;10533068;28;20024;-73
2022/01/31 15:01:23;;;;;;;5.60;3.15;;;;;;;;;;10516696;28;20830;-72
2022/01/31 15:06:23;;;;;;;10.30;3.73;;;;;;;;;;10527776;28;20070;-73
2022/01/31 15:11:23;;;;;;;9.20;4.00;;;;;;;;;;10534491;28;20024;-78
2022/01/31 15:16:28;;;;;;;6.78;2.28;;;;;;;;;;10501409;28;20026;-76
2022/01/31 15:21:32;;;;;;;6.50;3.33;;;;;;;;;;10534581;28;20174;-72
2022/01/31 15:26:35;;;;;;;13.50;2.30;;;;;;;;;;10533384;28;20111;-74
2022/01/31 15:31:36;;;;;;;14.07;4.22;;;;;;;;;;10498693;28;20119;-72
2022/01/31 15:36:36;;;;;;;12.63;3.20;;;;;;;;;;10531958;28;20024;-72
2022/01/31 15:41:37;;;;;;;9.37;3.23;;;;;;;;;;10514506;28;20723;-72
2022/01/31 15:46:37;;;;;;;12.90;4.40;;;;;;;;;;10531397;28;20028;-72
2022/01/31 15:51:37;;;;;;;17.17;4.70;;;;;;;;;;10514318;28;20036;-70
2022/01/31 15:56:38;;;;;;;25.88;5.72;;;;;;;;;;10513110;28;20031;-75
2022/01/31 16:01:39;;;;;;;20.48;5.38;;;;;;;;;;10513524;28;20354;-72
2022/01/31 16:06:39;;;;;;;12.93;4.45;;;;;;;;;;10532171;28;20038;-71
2022/01/31 16:11:40;;;;;;;10.15;5.25;;;;;;;;;;10531372;28;20094;-72
2022/01/31 16:16:40;;;;;;;27.13;7.37;;;;;;;;;;10528926;28;20140;-74
2022/01/31 16:21:40;;;;;;;23.98;8.90;;;;;;;;;;10529017;28;20036;-71
2022/01/31 16:26:41;;;;;;;17.60;7.50;;;;;;;;;;10537109;28;20044;-70
2022/01/31 16:31:41;;;;;;;11.25;7.18;;;;;;;;;;10537818;28;20032;-78
2022/01/31 16:36:41;;;;;;;24.80;5.87;;;;;;;;;;10573009;28;20103;-71
2022/01/31 16:41:42;;;;;;;16.23;5.85;;;;;;;;;;10552130;28;20031;-70
2022/01/31 16:46:42;;;;;;;22.45;8.38;;;;;;;;;;10534919;28;20084;-72
2022/01/31 16:51:46;;;;;;;17.23;7.45;;;;;;;;;;10572061;28;20642;-75
2022/01/31 16:56:46;;;;;;;34.13;9.30;;;;;;;;;;10556053;28;20122;-72
2022/01/31 17:01:47;;;;;;;21.60;7.38;;;;;;;;;;10558026;28;20038;-73
2022/01/31 17:06:47;;;;;;;24.23;6.63;;;;;;;;;;10585148;28;20465;-72
2022/01/31 17:11:47;;;;;;;18.20;6.47;;;;;;;;;;10566631;28;20073;-71
2022/01/31 17:16:48;;;;;;;25.40;8.70;;;;;;;;;;10566767;28;20058;-73
2022/01/31 17:21:48;;;;;;;25.20;8.48;;;;;;;;;;10551224;28;20757;-71
2022/01/31 17:26:48;;;;;;;23.83;8.93;;;;;;;;;;10553500;28;20039;-73
2022/01/31 17:31:49;;;;;;;29.77;11.27;;;;;;;;;;10561161;28;20032;-71
2022/01/31 17:36:49;;;;;;;23.00;9.15;;;;;;;;;;10580470;27;20165;-73
2022/01/31 17:41:58;;;;;;;22.73;8.27;;;;;;;;;;10564640;27;20489;-71
2022/01/31 17:47:00;;;;;;;20.92;7.72;;;;;;;;;;10560278;28;20303;-71
2022/01/31 17:52:00;;;;;;;24.63;9.57;;;;;;;;;;10577920;28;20084;-71
2022/01/31 17:57:00;;;;;;;27.23;9.07;;;;;;;;;;10538889;28;20028;-72
2022/01/31 18:02:02;;;;;;;29.23;8.47;;;;;;;;;;10559351;28;20036;-74
2022/01/31 18:07:02;;;;;;;23.10;9.52;;;;;;;;;;10559485;28;20754;-72
2022/01/31 18:12:03;;;;;;;24.80;8.95;;;;;;;;;;10577479;28;20044;-70
2022/01/31 18:17:04;;;;;;;30.00;9.93;;;;;;;;;;10558298;28;20065;-71
2022/01/31 18:22:05;;;;;;;26.05;8.52;;;;;;;;;;10556864;28;20708;-71
2022/01/31 18:27:06;;;;;;;27.02;9.70;;;;;;;;;;10556716;28;20031;-72
2022/01/31 18:32:10;;;;;;;25.55;7.80;;;;;;;;;;10544389;28;20447;-71
2022/01/31 18:37:11;;;;;;;18.20;9.07;;;;;;;;;;10574194;28;20532;-71
2022/01/31 18:42:11;;;;;;;25.77;8.73;;;;;;;;;;10574814;28;20034;-72
2022/01/31 18:47:12;;;;;;;19.95;8.50;;;;;;;;;;10556175;28;20027;-71
2022/01/31 18:52:16;;;;;;;30.02;9.27;;;;;;;;;;10515475;28;20028;-70
2022/01/31 18:57:17;;;;;;;26.88;7.88;;;;;;;;;;10514070;28;20035;-70
2022/01/31 19:02:18;;;;;;;21.53;8.53;;;;;;;;;;10531858;28;20032;-70
2022/01/31 19:07:18;;;;;;;25.98;9.68;;;;;;;;;;10545198;28;20091;-71
2022/01/31 19:12:25;;;;;;;31.90;9.43;;;;;;;;;;10540340;28;20039;-71
2022/01/31 19:17:27;;;;;;;32.47;11.00;;;;;;;;;;10543692;28;20032;-71
2022/01/31 19:22:27;;;;;;;34.50;12.80;;;;;;;;;;10544965;28;20048;-79
2022/01/31 19:27:28;;;;;;;28.97;12.73;;;;;;;;;;10524267;28;20510;-74
2022/01/31 19:32:30;;;;;;;31.25;14.32;;;;;;;;;;10527279;28;20274;-74
2022/01/31 19:37:30;;;;;;;34.67;14.15;;;;;;;;;;10533540;28;20028;-73
2022/01/31 19:47:50;;;;;;;35.70;12.38;;;;;;;;;;10571836;28;20493;-71
2022/01/31 19:52:50;;;;;;;30.67;11.52;;;;;;;;;;10559226;28;20032;-71
2022/01/31 19:57:50;;;;;;;29.58;10.98;;;;;;;;;;10530431;28;20020;-78
2022/01/31 20:02:50;;;;;;;36.87;12.00;;;;;;;;;;10534013;28;20024;-70
2022/01/31 20:07:51;;;;;;;31.25;11.43;;;;;;;;;;10556379;28;20030;-71
2022/01/31 20:12:52;;;;;;;25.95;10.88;;;;;;;;;;10552893;28;20396;-71
2022/01/31 20:17:52;;;;;;;30.55;10.80;;;;;;;;;;10572451;28;20474;-72
2022/01/31 20:22:52;;;;;;;22.92;11.10;;;;;;;;;;10528515;28;20039;-76
2022/01/31 20:27:52;;;;;;;22.87;9.87;;;;;;;;;;10549057;28;20058;-71
2022/01/31 20:32:53;;;;;;;32.65;12.43;;;;;;;;;;10544490;28;20029;-70
2022/01/31 20:38:00;;;;;;;40.17;13.63;;;;;;;;;;10551306;28;20110;-71
2022/01/31 20:43:01;;;;;;;43.83;14.53;;;;;;;;;;10563303;28;20258;-71
2022/01/31 20:48:01;;;;;;;32.03;14.38;;;;;;;;;;10527549;28;20081;-71
2022/01/31 20:53:02;;;;;;;44.42;14.05;;;;;;;;;;10529123;28;20433;-73
2022/01/31 20:58:02;;;;;;;43.88;13.63;;;;;;;;;;10511332;28;20028;-73
2022/01/31 21:03:03;;;;;;;31.98;11.93;;;;;;;;;;10515727;28;20028;-70
2022/01/31 21:08:06;;;;;;;28.13;12.20;;;;;;;;;;10532915;28;20473;-71
2022/01/31 21:13:09;;;;;;;32.08;14.20;;;;;;;;;;10558208;28;20067;-71
2022/01/31 21:18:10;;;;;;;32.85;15.63;;;;;;;;;;10543079;28;20634;-73
2022/01/31 21:23:10;;;;;;;40.53;14.30;;;;;;;;;;10537649;28;20117;-77
2022/01/31 21:28:14;;;;;;;43.63;15.27;;;;;;;;;;10557271;28;20803;-75
2022/01/31 21:33:22;;;;;;;37.30;13.45;;;;;;;;;;10559643;28;20032;-76
2022/01/31 21:38:23;;;;;;;33.50;13.15;;;;;;;;;;10559816;28;20051;-70
2022/01/31 21:43:23;;;;;;;31.92;13.45;;;;;;;;;;10577622;28;20032;-70
2022/01/31 21:48:23;;;;;;;36.70;11.57;;;;;;;;;;10558538;28;20414;-71
2022/01/31 21:53:24;;;;;;;27.35;11.57;;;;;;;;;;10560594;28;20138;-70
2022/01/31 21:58:24;;;;;;;20.05;8.35;;;;;;;;;;10566342;28;20038;-69
2022/01/31 22:03:25;;;;;;;25.80;8.50;;;;;;;;;;10558707;28;20027;-70
2022/01/31 22:08:32;;;;;;;21.40;8.38;;;;;;;;;;10559749;28;20035;-71
2022/01/31 22:13:33;;;;;;;23.07;9.47;;;;;;;;;;10559051;28;20556;-70
2022/01/31 22:18:33;;;;;;;26.80;10.33;;;;;;;;;;10558461;28;20032;-71
2022/01/31 22:23:33;;;;;;;25.48;9.75;;;;;;;;;;10577420;28;20047;-75
2022/01/31 22:28:34;;;;;;;19.88;10.60;;;;;;;;;;10559854;28;20059;-75
2022/01/31 22:33:36;;;;;;;32.37;9.97;;;;;;;;;;10577230;28;20514;-71
2022/01/31 22:38:36;;;;;;;32.38;9.65;;;;;;;;;;10558539;28;20433;-74
2022/01/31 22:43:37;;;;;;;20.17;9.00;;;;;;;;;;10559287;28;20038;-71
2022/01/31 22:48:37;;;;;;;21.13;9.95;;;;;;;;;;10558155;28;20489;-70
2022/01/31 22:53:37;;;;;;;22.60;10.68;;;;;;;;;;10557429;28;20462;-73
2022/01/31 22:58:38;;;;;;;28.23;11.10;;;;;;;;;;10558194;28;20440;-70
2022/01/31 23:03:38;;;;;;;36.03;11.60;;;;;;;;;;10558278;28;20024;-74
2022/01/31 23:08:39;;;;;;;32.33;11.82;;;;;;;;;;10558333;28;20031;-71
2022/01/31 23:13:42;;;;;;;29.35;11.73;;;;;;;;;;10540588;28;20028;-71
